sensor_id;sensor_type;location;lat;lon;timestamp;pressure;altitude;pressure_sealevel;temperature;humidity
34297;BME280;20564;42.902;25.336;2023-07-20T00:00:36;97097.28;;;22.21;84.03
34297;BME280;20564;42.902;25.336;2023-07-20T00:03:20;97089.88;;;22.23;83.26
34297;BME280;20564;42.902;25.336;2023-07-20T00:05:49;97082.41;;;22.25;83.36
34297;BME280;20564;42.902;25.336;2023-07-20T00:08:17;97075.19;;;22.26;81.82
34297;BME280;20564;42.902;25.336;2023-07-20T00:10:44;97061.75;;;22.32;82.77
34297;BME280;20564;42.902;25.336;2023-07-20T00:13:11;97046.13;;;22.23;81.40
34297;BME280;20564;42.902;25.336;2023-07-20T00:15:39;97034.59;;;22.22;81.16
34297;BME280;20564;42.902;25.336;2023-07-20T00:18:06;97026.38;;;22.17;81.31
34297;BME280;20564;42.902;25.336;2023-07-20T00:20:33;97023.44;;;22.25;80.78
34297;BME280;20564;42.902;25.336;2023-07-20T00:23:00;97005.31;;;22.21;81.31
34297;BME280;20564;42.902;25.336;2023-07-20T00:25:28;97012.28;;;22.28;81.28
34297;BME280;20564;42.902;25.336;2023-07-20T00:27:55;97009.59;;;22.28;81.44
34297;BME280;20564;42.902;25.336;2023-07-20T00:30:22;97004.81;;;22.30;80.39
34297;BME280;20564;42.902;25.336;2023-07-20T00:32:50;96998.25;;;22.26;79.60
34297;BME280;20564;42.902;25.336;2023-07-20T00:35:17;96991.88;;;22.27;80.14
34297;BME280;20564;42.902;25.336;2023-07-20T00:37:44;96973.00;;;22.34;79.88
34297;BME280;20564;42.902;25.336;2023-07-20T00:40:12;96975.50;;;22.35;80.82
34297;BME280;20564;42.902;25.336;2023-07-20T00:42:40;96963.72;;;22.36;80.80
34297;BME280;20564;42.902;25.336;2023-07-20T00:45:07;96947.19;;;22.39;80.43
34297;BME280;20564;42.902;25.336;2023-07-20T00:47:34;96929.63;;;22.44;81.44
34297;BME280;20564;42.902;25.336;2023-07-20T00:50:02;96910.31;;;22.35;83.58
34297;BME280;20564;42.902;25.336;2023-07-20T00:52:32;96893.84;;;22.31;86.25
34297;BME280;20564;42.902;25.336;2023-07-20T00:55:00;96819.53;;;22.38;95.33
34297;BME280;20564;42.902;25.336;2023-07-20T00:57:28;96672.13;;;22.13;98.77
34297;BME280;20564;42.902;25.336;2023-07-20T00:59:55;96641.72;;;21.71;98.41
34297;BME280;20564;42.902;25.336;2023-07-20T01:02:22;96770.00;;;21.36;100.00
34297;BME280;20564;42.902;25.336;2023-07-20T01:04:49;96777.72;;;21.19;100.00
34297;BME280;20564;42.902;25.336;2023-07-20T01:07:26;96753.50;;;21.07;100.00
34297;BME280;20564;42.902;25.336;2023-07-20T01:10:12;96759.00;;;20.87;100.00
34297;BME280;20564;42.902;25.336;2023-07-20T01:12:42;96751.53;;;20.96;100.00
34297;BME280;20564;42.902;25.336;2023-07-20T01:15:10;96741.72;;;20.83;100.00
34297;BME280;20564;42.902;25.336;2023-07-20T01:17:37;96746.69;;;20.80;100.00
34297;BME280;20564;42.902;25.336;2023-07-20T01:20:06;96751.66;;;20.76;100.00
34297;BME280;20564;42.902;25.336;2023-07-20T01:30:58;96731.63;;;20.54;100.00
34297;BME280;20564;42.902;25.336;2023-07-20T01:33:31;96709.03;;;20.43;100.00
34297;BME280;20564;42.902;25.336;2023-07-20T01:36:00;96690.94;;;20.45;100.00
34297;BME280;20564;42.902;25.336;2023-07-20T01:38:28;96675.97;;;20.37;100.00
34297;BME280;20564;42.902;25.336;2023-07-20T01:40:56;96679.34;;;20.26;100.00
34297;BME280;20564;42.902;25.336;2023-07-20T01:43:24;96661.44;;;20.27;100.00
34297;BME280;20564;42.902;25.336;2023-07-20T01:45:51;96651.22;;;20.17;100.00
34297;BME280;20564;42.902;25.336;2023-07-20T01:48:18;96644.66;;;20.13;100.00
34297;BME280;20564;42.902;25.336;2023-07-20T01:50:45;96645.06;;;20.10;100.00
34297;BME280;20564;42.902;25.336;2023-07-20T01:53:13;96647.50;;;20.18;100.00
34297;BME280;20564;42.902;25.336;2023-07-20T01:55:43;96659.66;;;20.14;100.00
34297;BME280;20564;42.902;25.336;2023-07-20T01:58:10;96644.91;;;20.05;100.00
34297;BME280;20564;42.902;25.336;2023-07-20T02:00:37;96652.91;;;20.05;100.00
34297;BME280;20564;42.902;25.336;2023-07-20T02:03:05;96644.25;;;20.09;100.00
34297;BME280;20564;42.902;25.336;2023-07-20T02:05:33;96641.34;;;20.11;100.00
34297;BME280;20564;42.902;25.336;2023-07-20T02:08:00;96638.13;;;20.02;100.00
34297;BME280;20564;42.902;25.336;2023-07-20T02:10:27;96628.25;;;20.03;100.00
34297;BME280;20564;42.902;25.336;2023-07-20T02:12:54;96626.63;;;20.02;100.00
34297;BME280;20564;42.902;25.336;2023-07-20T02:15:21;96628.25;;;20.03;100.00
34297;BME280;20564;42.902;25.336;2023-07-20T02:17:48;96632.38;;;20.05;100.00
34297;BME280;20564;42.902;25.336;2023-07-20T02:20:15;96639.97;;;20.02;100.00
34297;BME280;20564;42.902;25.336;2023-07-20T02:22:42;96639.81;;;19.96;100.00
34297;BME280;20564;42.902;25.336;2023-07-20T02:25:09;96643.50;;;19.95;100.00
34297;BME280;20564;42.902;25.336;2023-07-20T02:27:37;96664.94;;;19.82;100.00
34297;BME280;20564;42.902;25.336;2023-07-20T02:30:05;96655.47;;;19.86;100.00
34297;BME280;20564;42.902;25.336;2023-07-20T02:32:33;96658.16;;;19.80;100.00
34297;BME280;20564;42.902;25.336;2023-07-20T02:35:01;96658.34;;;19.85;100.00
34297;BME280;20564;42.902;25.336;2023-07-20T02:37:30;96670.69;;;19.79;100.00
34297;BME280;20564;42.902;25.336;2023-07-20T02:39:57;96678.88;;;19.84;100.00
34297;BME280;20564;42.902;25.336;2023-07-20T02:42:24;96664.50;;;19.85;100.00
34297;BME280;20564;42.902;25.336;2023-07-20T02:44:52;96663.47;;;19.86;100.00
34297;BME280;20564;42.902;25.336;2023-07-20T02:47:19;96655.06;;;19.89;100.00
34297;BME280;20564;42.902;25.336;2023-07-20T02:49:46;96660.03;;;19.79;100.00
34297;BME280;20564;42.902;25.336;2023-07-20T02:52:13;96657.53;;;19.84;100.00
34297;BME280;20564;42.902;25.336;2023-07-20T02:54:40;96652.66;;;19.74;100.00
34297;BME280;20564;42.902;25.336;2023-07-20T02:57:07;96658.81;;;19.75;100.00
34297;BME280;20564;42.902;25.336;2023-07-20T02:59:34;96658.81;;;19.75;100.00
34297;BME280;20564;42.902;25.336;2023-07-20T03:02:02;96653.63;;;19.80;100.00
34297;BME280;20564;42.902;25.336;2023-07-20T03:04:29;96661.03;;;19.78;100.00
34297;BME280;20564;42.902;25.336;2023-07-20T03:06:56;96654.69;;;19.72;100.00
34297;BME280;20564;42.902;25.336;2023-07-20T03:09:23;96653.06;;;19.71;100.00
34297;BME280;20564;42.902;25.336;2023-07-20T03:11:51;96662.50;;;19.61;100.00
34297;BME280;20564;42.902;25.336;2023-07-20T03:14:17;96669.09;;;19.65;100.00
34297;BME280;20564;42.902;25.336;2023-07-20T03:16:44;96670.72;;;19.66;100.00
34297;BME280;20564;42.902;25.336;2023-07-20T03:19:11;96664.38;;;19.60;100.00
34297;BME280;20564;42.902;25.336;2023-07-20T03:21:38;96664.16;;;19.62;100.00
34297;BME280;20564;42.902;25.336;2023-07-20T03:24:08;96684.72;;;19.68;100.00
34297;BME280;20564;42.902;25.336;2023-07-20T03:26:36;96688.16;;;19.62;100.00
34297;BME280;20564;42.902;25.336;2023-07-20T03:29:04;96687.53;;;19.60;100.00
34297;BME280;20564;42.902;25.336;2023-07-20T03:31:31;96685.13;;;19.65;100.00
34297;BME280;20564;42.902;25.336;2023-07-20T03:34:02;96689.41;;;19.66;100.00
34297;BME280;20564;42.902;25.336;2023-07-20T03:36:29;96685.94;;;19.65;100.00
34297;BME280;20564;42.902;25.336;2023-07-20T03:38:58;96686.75;;;19.66;100.00
34297;BME280;20564;42.902;25.336;2023-07-20T03:41:25;96675.88;;;19.61;100.00
34297;BME280;20564;42.902;25.336;2023-07-20T03:43:52;96682.63;;;19.70;100.00
34297;BME280;20564;42.902;25.336;2023-07-20T03:46:19;96691.66;;;19.75;100.00
34297;BME280;20564;42.902;25.336;2023-07-20T03:48:47;96698.00;;;19.81;100.00
34297;BME280;20564;42.902;25.336;2023-07-20T03:51:14;96699.28;;;19.72;100.00
34297;BME280;20564;42.902;25.336;2023-07-20T03:53:41;96687.56;;;19.66;100.00
34297;BME280;20564;42.902;25.336;2023-07-20T03:56:07;96705.22;;;19.74;100.00
34297;BME280;20564;42.902;25.336;2023-07-20T03:58:34;96702.75;;;19.72;100.00
34297;BME280;20564;42.902;25.336;2023-07-20T04:01:02;96698.00;;;19.81;100.00
34297;BME280;20564;42.902;25.336;2023-07-20T04:03:30;96708.88;;;19.86;100.00
34297;BME280;20564;42.902;25.336;2023-07-20T04:05:57;96699.41;;;19.90;100.00
34297;BME280;20564;42.902;25.336;2023-07-20T04:08:25;96717.06;;;19.98;100.00
34297;BME280;20564;42.902;25.336;2023-07-20T04:10:53;96720.78;;;19.97;100.00
34297;BME280;20564;42.902;25.336;2023-07-20T04:13:21;96740.47;;;20.03;100.00
34297;BME280;20564;42.902;25.336;2023-07-20T04:15:50;96719.47;;;20.13;100.00
34297;BME280;20564;42.902;25.336;2023-07-20T04:18:18;96730.94;;;20.20;100.00
34297;BME280;20564;42.902;25.336;2023-07-20T04:20:45;96735.22;;;20.28;100.00
34297;BME280;20564;42.902;25.336;2023-07-20T04:23:12;96729.59;;;20.42;100.00
34297;BME280;20564;42.902;25.336;2023-07-20T04:25:40;96738.59;;;20.55;100.00
34297;BME280;20564;42.902;25.336;2023-07-20T04:28:07;96740.75;;;20.78;100.00
34297;BME280;20564;42.902;25.336;2023-07-20T04:30:38;96740.78;;;21.03;100.00
34297;BME280;20564;42.902;25.336;2023-07-20T04:33:07;96734.63;;;21.27;100.00
34297;BME280;20564;42.902;25.336;2023-07-20T04:38:16;96726.94;;;21.81;100.00
34297;BME280;20564;42.902;25.336;2023-07-20T04:40:49;96730.44;;;22.00;100.00
34297;BME280;20564;42.902;25.336;2023-07-20T04:43:17;96730.28;;;22.13;100.00
34297;BME280;20564;42.902;25.336;2023-07-20T04:45:44;96738.72;;;22.35;100.00
34297;BME280;20564;42.902;25.336;2023-07-20T04:48:15;96738.75;;;22.47;100.00
34297;BME280;20564;42.902;25.336;2023-07-20T04:50:44;96736.34;;;22.57;100.00
34297;BME280;20564;42.902;25.336;2023-07-20T04:53:12;96741.31;;;22.72;100.00
34297;BME280;20564;42.902;25.336;2023-07-20T04:55:40;96741.06;;;22.73;100.00
34297;BME280;20564;42.902;25.336;2023-07-20T04:58:18;96729.19;;;22.81;100.00
34297;BME280;20564;42.902;25.336;2023-07-20T05:00:49;96741.75;;;22.99;100.00
34297;BME280;20564;42.902;25.336;2023-07-20T05:03:16;96724.75;;;23.17;100.00
34297;BME280;20564;42.902;25.336;2023-07-20T05:05:43;96718.56;;;23.40;100.00
34297;BME280;20564;42.902;25.336;2023-07-20T05:08:13;96728.63;;;23.56;100.00
34297;BME280;20564;42.902;25.336;2023-07-20T05:10:40;96729.09;;;23.76;100.00
34297;BME280;20564;42.902;25.336;2023-07-20T05:13:07;96725.00;;;23.97;100.00
34297;BME280;20564;42.902;25.336;2023-07-20T05:15:34;96723.66;;;24.23;100.00
34297;BME280;20564;42.902;25.336;2023-07-20T05:18:02;96721.22;;;24.62;95.47
34297;BME280;20564;42.902;25.336;2023-07-20T05:20:29;96718.91;;;24.99;94.79
34297;BME280;20564;42.902;25.336;2023-07-20T05:22:56;96711.34;;;25.30;88.85
34297;BME280;20564;42.902;25.336;2023-07-20T05:25:23;96712.16;;;25.64;87.88
34297;BME280;20564;42.902;25.336;2023-07-20T05:27:51;96699.09;;;25.95;86.59
34297;BME280;20564;42.902;25.336;2023-07-20T05:30:18;96702.69;;;26.23;86.97
34297;BME280;20564;42.902;25.336;2023-07-20T05:32:46;96699.75;;;26.46;88.14
34297;BME280;20564;42.902;25.336;2023-07-20T05:35:18;96699.91;;;26.61;85.41
34297;BME280;20564;42.902;25.336;2023-07-20T05:37:45;96696.91;;;26.85;83.91
34297;BME280;20564;42.902;25.336;2023-07-20T05:40:13;96693.03;;;27.08;83.01
34297;BME280;20564;42.902;25.336;2023-07-20T05:42:41;96682.19;;;27.35;81.71
34297;BME280;20564;42.902;25.336;2023-07-20T05:45:08;96684.03;;;27.67;83.37
34297;BME280;20564;42.902;25.336;2023-07-20T05:47:36;96673.13;;;27.94;80.78
34297;BME280;20564;42.902;25.336;2023-07-20T05:50:03;96669.09;;;28.06;73.95
34297;BME280;20564;42.902;25.336;2023-07-20T05:52:30;96660.50;;;28.20;69.80
34297;BME280;20564;42.902;25.336;2023-07-20T05:54:57;96658.63;;;28.25;64.18
34297;BME280;20564;42.902;25.336;2023-07-20T05:57:24;96655.09;;;28.20;68.75
34297;BME280;20564;42.902;25.336;2023-07-20T05:59:52;96655.91;;;28.20;69.60
34297;BME280;20564;42.902;25.336;2023-07-20T06:02:20;96659.91;;;28.02;72.32
34297;BME280;20564;42.902;25.336;2023-07-20T06:04:47;96657.41;;;27.91;73.32
34297;BME280;20564;42.902;25.336;2023-07-20T06:07:17;96662.53;;;27.87;72.02
34297;BME280;20564;42.902;25.336;2023-07-20T06:09:44;96654.47;;;28.02;69.41
34297;BME280;20564;42.902;25.336;2023-07-20T06:12:11;96659.41;;;28.26;66.94
34297;BME280;20564;42.902;25.336;2023-07-20T06:14:38;96657.09;;;28.55;63.68
34297;BME280;20564;42.902;25.336;2023-07-20T06:17:05;96665.00;;;28.87;68.49
34297;BME280;20564;42.902;25.336;2023-07-20T06:19:32;96665.31;;;29.11;63.73
34297;BME280;20564;42.902;25.336;2023-07-20T06:21:59;96656.34;;;29.26;62.89
34297;BME280;20564;42.902;25.336;2023-07-20T06:24:26;96661.19;;;29.39;61.78
34297;BME280;20564;42.902;25.336;2023-07-20T06:26:53;96665.53;;;29.55;61.32
34297;BME280;20564;42.902;25.336;2023-07-20T06:29:20;96660.56;;;29.93;60.22
34297;BME280;20564;42.902;25.336;2023-07-20T06:31:47;96659.63;;;30.23;63.18
34297;BME280;20564;42.902;25.336;2023-07-20T06:34:14;96655.25;;;30.27;57.99
34297;BME280;20564;42.902;25.336;2023-07-20T06:36:41;96650.03;;;30.41;57.19
34297;BME280;20564;42.902;25.336;2023-07-20T06:39:08;96652.41;;;30.53;56.28
34297;BME280;20564;42.902;25.336;2023-07-20T06:41:38;96658.59;;;30.64;55.78
34297;BME280;20564;42.902;25.336;2023-07-20T06:44:09;96653.03;;;30.84;54.46
34297;BME280;20564;42.902;25.336;2023-07-20T06:46:36;96656.13;;;31.07;56.20
34297;BME280;20564;42.902;25.336;2023-07-20T06:49:06;96658.72;;;31.22;57.29
34297;BME280;20564;42.902;25.336;2023-07-20T06:51:37;96663.69;;;31.44;53.01
34297;BME280;20564;42.902;25.336;2023-07-20T06:54:04;96670.41;;;31.57;52.68
34297;BME280;20564;42.902;25.336;2023-07-20T06:56:31;96661.50;;;31.75;53.50
34297;BME280;20564;42.902;25.336;2023-07-20T06:58:59;96666.88;;;31.80;54.03
34297;BME280;20564;42.902;25.336;2023-07-20T07:01:27;96667.56;;;31.96;51.01
34297;BME280;20564;42.902;25.336;2023-07-20T07:03:54;96671.72;;;32.31;51.63
34297;BME280;20564;42.902;25.336;2023-07-20T07:06:22;96667.72;;;32.48;50.23
34297;BME280;20564;42.902;25.336;2023-07-20T07:08:51;96665.16;;;32.56;49.94
34297;BME280;20564;42.902;25.336;2023-07-20T07:11:22;96662.84;;;32.82;49.62
34297;BME280;20564;42.902;25.336;2023-07-20T07:13:50;96670.22;;;33.01;48.82
34297;BME280;20564;42.902;25.336;2023-07-20T07:16:18;96669.47;;;33.14;47.39
34297;BME280;20564;42.902;25.336;2023-07-20T07:18:49;96672.06;;;33.38;47.86
34297;BME280;20564;42.902;25.336;2023-07-20T07:21:16;96679.63;;;33.74;48.47
34297;BME280;20564;42.902;25.336;2023-07-20T07:23:45;96681.19;;;33.94;46.97
34297;BME280;20564;42.902;25.336;2023-07-20T07:26:13;96685.13;;;34.29;45.30
34297;BME280;20564;42.902;25.336;2023-07-20T07:28:40;96677.84;;;34.52;43.97
34297;BME280;20564;42.902;25.336;2023-07-20T07:31:06;96678.38;;;34.76;42.84
34297;BME280;20564;42.902;25.336;2023-07-20T07:33:34;96680.16;;;34.45;43.21
34297;BME280;20564;42.902;25.336;2023-07-20T07:36:02;96684.03;;;34.30;44.64
34297;BME280;20564;42.902;25.336;2023-07-20T07:38:29;96681.47;;;34.33;45.32
34297;BME280;20564;42.902;25.336;2023-07-20T07:41:16;96693.81;;;34.45;45.03
34297;BME280;20564;42.902;25.336;2023-07-20T07:43:43;96690.06;;;34.41;44.99
34297;BME280;20564;42.902;25.336;2023-07-20T07:46:10;96700.81;;;34.51;44.51
34297;BME280;20564;42.902;25.336;2023-07-20T07:48:40;96704.97;;;34.35;44.02
34297;BME280;20564;42.902;25.336;2023-07-20T07:51:07;96705.56;;;34.31;44.73
34297;BME280;20564;42.902;25.336;2023-07-20T07:53:33;96704.25;;;34.29;44.06
34297;BME280;20564;42.902;25.336;2023-07-20T07:56:02;96703.03;;;34.35;45.90
34297;BME280;20564;42.902;25.336;2023-07-20T07:58:29;96713.88;;;34.54;44.69
34297;BME280;20564;42.902;25.336;2023-07-20T08:00:58;96709.69;;;34.70;43.19
34297;BME280;20564;42.902;25.336;2023-07-20T08:03:26;96711.47;;;34.89;42.46
34297;BME280;20564;42.902;25.336;2023-07-20T08:05:54;96706.28;;;34.87;42.33
34297;BME280;20564;42.902;25.336;2023-07-20T08:08:22;96711.81;;;35.10;41.88
34297;BME280;20564;42.902;25.336;2023-07-20T08:10:53;96712.56;;;35.24;42.17
34297;BME280;20564;42.902;25.336;2023-07-20T08:13:21;96718.72;;;35.30;42.61
34297;BME280;20564;42.902;25.336;2023-07-20T08:15:50;96714.50;;;35.23;41.33
34297;BME280;20564;42.902;25.336;2023-07-20T08:18:18;96719.22;;;35.54;39.74
34297;BME280;20564;42.902;25.336;2023-07-20T08:20:46;96721.06;;;35.45;39.69
34297;BME280;20564;42.902;25.336;2023-07-20T08:23:14;96722.31;;;35.39;40.39
34297;BME280;20564;42.902;25.336;2023-07-20T08:25:40;96726.50;;;35.36;40.97
34297;BME280;20564;42.902;25.336;2023-07-20T08:28:11;96715.59;;;35.45;40.98
34297;BME280;20564;42.902;25.336;2023-07-20T08:30:49;96728.47;;;35.44;41.91
34297;BME280;20564;42.902;25.336;2023-07-20T08:33:17;96732.03;;;35.45;39.94
34297;BME280;20564;42.902;25.336;2023-07-20T08:35:47;96726.19;;;35.38;39.94
34297;BME280;20564;42.902;25.336;2023-07-20T08:38:14;96727.16;;;35.42;40.46
34297;BME280;20564;42.902;25.336;2023-07-20T08:40:46;96732.28;;;35.57;41.63
34297;BME280;20564;42.902;25.336;2023-07-20T08:43:14;96724.56;;;35.59;40.12
34297;BME280;20564;42.902;25.336;2023-07-20T08:45:45;96724.41;;;35.56;40.56
34297;BME280;20564;42.902;25.336;2023-07-20T08:48:13;96731.41;;;35.70;39.25
34297;BME280;20564;42.902;25.336;2023-07-20T08:50:41;96726.41;;;35.72;40.28
34297;BME280;20564;42.902;25.336;2023-07-20T08:53:08;96732.66;;;35.64;40.30
34297;BME280;20564;42.902;25.336;2023-07-20T08:55:37;96739.41;;;35.58;42.45
34297;BME280;20564;42.902;25.336;2023-07-20T08:58:08;96750.56;;;35.48;41.40
34297;BME280;20564;42.902;25.336;2023-07-20T09:00:38;96748.53;;;35.54;41.52
34297;BME280;20564;42.902;25.336;2023-07-20T09:03:10;96751.59;;;35.52;42.42
34297;BME280;20564;42.902;25.336;2023-07-20T09:05:41;96758.38;;;35.55;41.28
34297;BME280;20564;42.902;25.336;2023-07-20T09:08:07;96770.00;;;35.60;41.76
34297;BME280;20564;42.902;25.336;2023-07-20T09:10:34;96762.75;;;35.42;40.00
34297;BME280;20564;42.902;25.336;2023-07-20T09:13:02;96767.03;;;35.34;41.30
34297;BME280;20564;42.902;25.336;2023-07-20T09:15:29;96764.53;;;35.46;41.31
34297;BME280;20564;42.902;25.336;2023-07-20T09:18:01;96744.97;;;35.53;39.05
34297;BME280;20564;42.902;25.336;2023-07-20T09:23:56;96741.19;;;35.18;38.46
34297;BME280;20564;42.902;25.336;2023-07-20T09:26:23;96729.34;;;35.09;38.25
34297;BME280;20564;42.902;25.336;2023-07-20T09:28:54;96741.97;;;35.18;39.49
34297;BME280;20564;42.902;25.336;2023-07-20T09:31:23;96753.69;;;35.33;38.99
34297;BME280;20564;42.902;25.336;2023-07-20T09:33:52;96748.44;;;35.22;38.38
34297;BME280;20564;42.902;25.336;2023-07-20T09:36:23;96738.56;;;34.99;37.61
34297;BME280;20564;42.902;25.336;2023-07-20T09:39:10;96735.38;;;34.69;40.28
34297;BME280;20564;42.902;25.336;2023-07-20T09:41:41;96724.22;;;34.79;39.64
34297;BME280;20564;42.902;25.336;2023-07-20T09:44:14;96721.13;;;35.09;39.57
34297;BME280;20564;42.902;25.336;2023-07-20T09:46:46;96717.22;;;35.23;38.11
34297;BME280;20564;42.902;25.336;2023-07-20T09:49:19;96709.06;;;35.32;38.63
34297;BME280;20564;42.902;25.336;2023-07-20T09:51:49;96713.13;;;35.35;38.63
34297;BME280;20564;42.902;25.336;2023-07-20T09:54:17;96709.63;;;35.43;38.47
34297;BME280;20564;42.902;25.336;2023-07-20T09:56:45;96704.09;;;35.57;37.42
34297;BME280;20564;42.902;25.336;2023-07-20T09:59:14;96709.50;;;35.48;37.55
34297;BME280;20564;42.902;25.336;2023-07-20T10:01:43;96711.97;;;35.36;37.64
34297;BME280;20564;42.902;25.336;2023-07-20T10:04:12;96707.47;;;35.31;39.06
34297;BME280;20564;42.902;25.336;2023-07-20T10:06:42;96716.59;;;35.26;39.26
34297;BME280;20564;42.902;25.336;2023-07-20T10:09:15;96709.91;;;35.33;39.06
34297;BME280;20564;42.902;25.336;2023-07-20T10:11:45;96707.38;;;35.45;38.39
34297;BME280;20564;42.902;25.336;2023-07-20T10:14:18;96706.25;;;35.46;38.94
34297;BME280;20564;42.902;25.336;2023-07-20T10:16:58;96699.88;;;35.50;38.17
34297;BME280;20564;42.902;25.336;2023-07-20T10:19:34;96704.28;;;35.60;38.33
34297;BME280;20564;42.902;25.336;2023-07-20T10:22:19;96693.16;;;35.57;37.45
34297;BME280;20564;42.902;25.336;2023-07-20T10:24:48;96706.41;;;35.41;37.95
34297;BME280;20564;42.902;25.336;2023-07-20T10:27:16;96696.47;;;35.22;38.23
34297;BME280;20564;42.902;25.336;2023-07-20T10:29:43;96691.84;;;35.09;37.67
34297;BME280;20564;42.902;25.336;2023-07-20T10:32:10;96692.84;;;35.13;38.33
34297;BME280;20564;42.902;25.336;2023-07-20T10:34:37;96688.81;;;35.11;37.40
34297;BME280;20564;42.902;25.336;2023-07-20T10:37:05;96686.50;;;35.04;38.36
34297;BME280;20564;42.902;25.336;2023-07-20T10:39:33;96685.53;;;34.86;41.10
34297;BME280;20564;42.902;25.336;2023-07-20T10:42:01;96684.22;;;34.84;40.04
34297;BME280;20564;42.902;25.336;2023-07-20T10:44:29;96669.13;;;34.86;38.81
34297;BME280;20564;42.902;25.336;2023-07-20T10:47:06;96685.13;;;34.93;38.67
34297;BME280;20564;42.902;25.336;2023-07-20T10:49:38;96678.38;;;34.99;39.32
34297;BME280;20564;42.902;25.336;2023-07-20T10:52:22;96690.09;;;35.13;39.76
34297;BME280;20564;42.902;25.336;2023-07-20T10:54:49;96681.03;;;35.04;39.15
34297;BME280;20564;42.902;25.336;2023-07-20T10:57:30;96691.47;;;35.02;39.11
34297;BME280;20564;42.902;25.336;2023-07-20T11:00:11;96687.13;;;35.01;39.35
34297;BME280;20564;42.902;25.336;2023-07-20T11:02:58;96675.97;;;34.97;39.48
34297;BME280;20564;42.902;25.336;2023-07-20T11:05:33;96681.25;;;34.94;39.78
34297;BME280;20564;42.902;25.336;2023-07-20T11:08:05;96674.56;;;35.00;37.46
34297;BME280;20564;42.902;25.336;2023-07-20T11:10:34;96668.31;;;34.86;37.61
34297;BME280;20564;42.902;25.336;2023-07-20T11:13:17;96663.84;;;34.90;36.98
34297;BME280;20564;42.902;25.336;2023-07-20T11:16:02;96666.63;;;34.98;39.49
34297;BME280;20564;42.902;25.336;2023-07-20T11:18:33;96659.81;;;35.10;38.34
34297;BME280;20564;42.902;25.336;2023-07-20T11:21:01;96660.56;;;35.01;38.85
34297;BME280;20564;42.902;25.336;2023-07-20T11:23:29;96652.41;;;35.10;39.49
34297;BME280;20564;42.902;25.336;2023-07-20T11:25:58;96654.28;;;35.23;39.70
34297;BME280;20564;42.902;25.336;2023-07-20T11:28:30;96657.41;;;35.31;37.47
34297;BME280;20564;42.902;25.336;2023-07-20T11:30:57;96646.09;;;35.23;39.78
34297;BME280;20564;42.902;25.336;2023-07-20T11:33:24;96642.59;;;35.32;38.45
34297;BME280;20564;42.902;25.336;2023-07-20T11:35:50;96634.88;;;35.34;38.45
34297;BME280;20564;42.902;25.336;2023-07-20T11:38:18;96633.97;;;35.47;37.69
34297;BME280;20564;42.902;25.336;2023-07-20T11:40:45;96634.34;;;35.54;37.09
34297;BME280;20564;42.902;25.336;2023-07-20T11:43:14;96641.59;;;35.50;36.82
34297;BME280;20564;42.902;25.336;2023-07-20T11:45:45;96636.41;;;35.48;36.70
34297;BME280;20564;42.902;25.336;2023-07-20T11:48:16;96640.28;;;35.47;38.06
34297;BME280;20564;42.902;25.336;2023-07-20T11:50:43;96623.94;;;35.34;37.96
34297;BME280;20564;42.902;25.336;2023-07-20T11:53:11;96626.31;;;35.26;36.63
34297;BME280;20564;42.902;25.336;2023-07-20T11:55:39;96615.53;;;35.30;36.35
34297;BME280;20564;42.902;25.336;2023-07-20T11:58:09;96618.94;;;35.36;36.71
34297;BME280;20564;42.902;25.336;2023-07-20T12:00:38;96618.19;;;35.44;35.48
34297;BME280;20564;42.902;25.336;2023-07-20T12:03:06;96608.22;;;35.48;35.34
34297;BME280;20564;42.902;25.336;2023-07-20T12:05:34;96600.69;;;35.54;36.83
34297;BME280;20564;42.902;25.336;2023-07-20T12:08:21;96591.69;;;35.53;36.66
34297;BME280;20564;42.902;25.336;2023-07-20T12:10:48;96570.28;;;35.55;35.93
34297;BME280;20564;42.902;25.336;2023-07-20T12:13:15;96558.72;;;35.36;36.57
34297;BME280;20564;42.902;25.336;2023-07-20T12:15:43;96545.44;;;35.12;36.95
34297;BME280;20564;42.902;25.336;2023-07-20T12:18:10;96535.19;;;34.72;37.73
34297;BME280;20564;42.902;25.336;2023-07-20T12:20:38;96545.53;;;34.53;39.15
34297;BME280;20564;42.902;25.336;2023-07-20T12:23:10;96547.84;;;34.46;39.45
34297;BME280;20564;42.902;25.336;2023-07-20T12:25:42;96554.34;;;34.50;39.57
34297;BME280;20564;42.902;25.336;2023-07-20T12:28:16;96552.38;;;34.64;39.39
34297;BME280;20564;42.902;25.336;2023-07-20T12:30:45;96555.06;;;35.09;36.50
34297;BME280;20564;42.902;25.336;2023-07-20T12:33:13;96543.25;;;35.22;36.55
34297;BME280;20564;42.902;25.336;2023-07-20T12:35:43;96548.63;;;35.05;37.15
34297;BME280;20564;42.902;25.336;2023-07-20T12:38:10;96541.03;;;34.79;37.64
34297;BME280;20564;42.902;25.336;2023-07-20T12:40:37;96552.13;;;34.74;40.96
34297;BME280;20564;42.902;25.336;2023-07-20T12:43:04;96541.78;;;34.71;40.44
34297;BME280;20564;42.902;25.336;2023-07-20T12:45:33;96541.78;;;34.71;39.81
34297;BME280;20564;42.902;25.336;2023-07-20T12:48:00;96539.53;;;34.73;41.22
34297;BME280;20564;42.902;25.336;2023-07-20T12:50:27;96537.69;;;34.83;40.26
34297;BME280;20564;42.902;25.336;2023-07-20T12:52:54;96541.16;;;34.97;39.74
34297;BME280;20564;42.902;25.336;2023-07-20T12:55:21;96539.56;;;35.36;38.94
34297;BME280;20564;42.902;25.336;2023-07-20T12:57:47;96532.38;;;35.48;37.16
34297;BME280;20564;42.902;25.336;2023-07-20T13:00:15;96535.84;;;35.32;37.30
34297;BME280;20564;42.902;25.336;2023-07-20T13:02:44;96531.88;;;35.38;38.89
34297;BME280;20564;42.902;25.336;2023-07-20T13:05:11;96527.06;;;35.43;38.44
34297;BME280;20564;42.902;25.336;2023-07-20T13:07:39;96514.75;;;35.55;38.15
34297;BME280;20564;42.902;25.336;2023-07-20T13:10:10;96520.75;;;35.83;40.10